Flight Track Log - Related Links

Times and Time Zones

All times are in EDT time to prevent confusion due to time zone crossing. See the BER6124 flight status page for this flight to view local times or setup timezone preferences in your user account.

Time Position Orientation Groundspeed Altitude Reporting Facility
EDT Latitude Longitude Course Direction KTS MPH feet Rate Location/Type
Wed 01:07:00 PM 49.2483 10.2251 312° West  Level Estimated
Wed 01:08:00 PM 49.3036 10.1257 310° West  Level Estimated
Wed 01:09:00 PM 49.3587 10.0261 310° West  Level Estimated
Wed 01:10:00 PM 49.4137 9.9262 310° West  Level Estimated
Wed 01:11:00 PM 49.4686 9.8261 310° West  Level Estimated
Wed 01:12:00 PM 49.5235 9.7258 310° West  Level Estimated
Wed 01:13:00 PM 49.5783 9.6252 310° West  Level Estimated
Wed 01:14:00 PM 49.6329 9.5245 310° West  Level Estimated
Wed 01:15:00 PM 49.6875 9.4235 310° West  Level Estimated
Wed 01:16:00 PM 49.7421 9.3223 310° West  Level Estimated
Wed 01:17:00 PM 49.7965 9.2208 310° West  Level Estimated
Wed 01:18:00 PM 49.8508 9.1191 310° West  Level Estimated
Wed 01:19:00 PM 49.9050 9.0172 310° West  Level Estimated
Wed 01:20:00 PM 49.9592 8.9151 310° West  Level Estimated
Wed 01:21:00 PM 50.0133 8.8127 309° West  Level Estimated
Wed 01:22:00 PM 50.0672 8.7101 309° West  Level Estimated
Wed 01:23:00 PM 50.1211 8.6073 309° West  Level Estimated
Wed 01:24:00 PM 50.1749 8.5042 309° West  Level Estimated
Wed 01:25:00 PM 50.2286 8.4009 309° West  Level Estimated
Wed 01:26:00 PM 50.2822 8.2974 309° West  Level Estimated
Wed 01:27:00 PM 50.3357 8.1937 309° West  Level Estimated
Wed 01:28:00 PM 50.3891 8.0897 309° West  Level Estimated
Wed 01:29:00 PM 50.4425 7.9854 309° West  Level Estimated
Wed 01:30:00 PM 50.4957 7.8810 309° West  Level Estimated
Wed 01:31:00 PM 50.5489 7.7763 309° West  Level Estimated
Wed 01:32:00 PM 50.6019 7.6714 309° West  Level Estimated
Wed 01:33:00 PM 50.6549 7.5662 308° West  Level Estimated
Wed 01:34:00 PM 50.7077 7.4608 308° West  Level Estimated
Wed 01:35:00 PM 50.7605 7.3552 308° West  Level Estimated
Wed 01:36:00 PM 50.8131 7.2493 308° West  Level Estimated
Wed 01:37:00 PM 50.8657 7.1431 308° West  Level Estimated
Wed 01:38:00 PM 50.8659 7.1427 309° West  Level Estimated
Wed 01:39:00 PM 50.8659 7.1427 140° Southeast  Level Estimated
Wed 01:40:00 PM 50.8659 7.1427 140° Southeast  Level Estimated
Wed 01:41:00 PM 50.8659 7.1427 140° Southeast  Level Estimated
Wed 01:42:00 PM 50.8659 7.1427 140° Southeast  Level Estimated
Wed 01:43:00 PM 50.8659 7.1427 140° Southeast  Level Estimated
Wed 01:44:00 PM 50.8659 7.1427 140° Southeast  Level Estimated
Wed 01:45:00 PM 50.8659 7.1427 140° Southeast  Level Estimated
Wed 01:46:00 PM 50.8659 7.1427 140° Southeast  Level Estimated
Wed 01:47:00 PM 50.8659 7.1427 140° Southeast  Level Estimated
Wed 01:48:00 PM 50.8659 7.1427 140° Southeast  Level Estimated
Wed 01:49:00 PM 50.8659 7.1427 140° Southeast  Level Estimated
Wed 01:50:00 PM 50.8659 7.1427 140° Southeast  Level Estimated
Wed 01:51:00 PM 50.8659 7.1427 140° Southeast  Level Estimated
Wed 01:52:00 PM 50.8659 7.1427 140° Southeast  Level Estimated
Wed 01:53:00 PM 50.8659 7.1427 140° Southeast  Level Estimated

Login

Don't have an account? Register now (free) for customized features, flight alerts, and more!